Terminal Aerodrome Forecast
Issued by NWS

Home | Current Version | Previous Version | Text Only | Print | Product List | Glossary On
Versions: 1 2 3 4 5 6 7 8 9 10 11 12 13 14 15
000
FTUS45 KCYS 261120
TAFLAR
TAF
KLAR 261120Z 2612/2712 18008KT P6SM SCT250
     FM261400 24007KT P6SM SCT250
     FM261800 30012KT P6SM SCT070 SCT250
     FM270300 24009KT P6SM BKN250=

USA.gov is the U.S. government's official web portal to all federal, state and local government web resources and services.